Tropical Cyclones
[Index]
Main Index Home Page Stock Weather Photos Extreme Storms Discussion Storm News and Storm Chasing Reports Tropical Cyclones / Hurricanes / Typhoons Weather Data and Links Wild Fires / Bushfires Weather Observation Techniques Weather Picture Catalogue Tornado Pictures and Reports Stock Video Footage and DVDs for sale
Season 1979-1980 Tropical Cyclone AMY Track Map
Season 1979-1980 Summaries: [BoM-AU] [JTWC-AU] [JTWC-SIO] [JTWC-SPAC] [JTWC-SH]
<<- Previous TC | JTWC 1979-1980 Season | Next TC ->>

click for intensity scale information  Lat/long Grid: Show Hide

 Date Labels: Show Hide

Joint Typhoon Warning Centre Cyclone Data

Name: AMY

04 Jan 1980 12:00 UTC to 11 Jan 1980 00:00 UTC

    date/time    lat    long     hPa   cat  kts
1980-01-04 12   13.2   120.0            1     40          
1980-01-04 18   14.0   119.7            1     40          
1980-01-05 00   14.5   119.5            1     40          
1980-01-05 06   14.7   119.6            1     40          
1980-01-05 12   14.8   119.6            1     40          
1980-01-05 18   15.1   119.4            1     40          
1980-01-06 00   15.2   119.0            1     45          
1980-01-06 06   15.1   118.4            1     45          
1980-01-06 12   15.0   118.0            1     50          
1980-01-06 18   14.9   118.1            1     50          
1980-01-07 00   14.8   118.2            2     55          
1980-01-07 06   15.3   118.2            2     55          
1980-01-07 12   16.1   118.3            2     60          
1980-01-07 18   16.8   118.5            2     60          
1980-01-08 00   17.5   118.8            2     65          
1980-01-08 06   17.9   118.8            2     70          
1980-01-08 12   18.2   118.8            3     75          
1980-01-08 18   18.6   119.1            3     90          
1980-01-09 00   19.0   119.3            4    100          
1980-01-09 06   19.4   119.3            4    100          
1980-01-09 12   19.8   119.3            3     90          
1980-01-09 18   19.9   119.5            3     75          
1980-01-10 00   19.9   119.7            2     60          
1980-01-10 06   20.3   119.9            1     45          
1980-01-10 12   21.0   120.0                  30          
1980-01-10 18   21.8   119.4                              
1980-01-11 00   22.7   117.8                              
Winds are 1-min average.

Tropical cyclone tracks developed by Michael Bath using data from the Joint Typhoon Warning Centre Best Tracks and Google Maps.


[Australian Severe Weather index] [Copyright Notice] [Email Contacts] [Search This Site] [Privacy Policy]
Document: tropical_cyclone_amy.htm Updated: 18 September 2016